Time;durP1;ratioP1;P1;durP2;ratioP2;P2;SDS_P1;SDS_P2;PMS_P1;PMS_P2;Temp;Humidity;BMP_temperature;BMP_pressure;BME280_temperature;BME280_humidity;BME280_pressure;Samples;Min_cycle;Max_cycle;Signal;HPM_P1;HPM_P2
2023/09/01 00:02:13;;;;;;;8.52;6.70;;;;;;;-145.48;100.00;64539.38;5978076;29;20394;-86
2023/09/01 00:05:26;;;;;;;7.80;6.35;;;;;;;-145.48;100.00;64539.38;5978164;29;20212;-86
2023/09/01 00:08:28;;;;;;;9.57;5.97;;;;;;;-145.48;100.00;64539.38;5971435;29;20619;-86
2023/09/01 00:11:31;;;;;;;7.20;6.10;;;;;;;-145.48;100.00;64539.38;5969221;29;20054;-87
2023/09/01 00:14:32;;;;;;;9.35;6.72;;;;;;;-145.48;100.00;64539.38;5966274;29;20417;-86
2023/09/01 00:17:34;;;;;;;6.60;5.93;;;;;;;-145.48;100.00;64539.38;5982535;29;20074;-87
2023/09/01 00:20:36;;;;;;;7.72;5.80;;;;;;;-145.48;100.00;64539.38;5982014;29;20066;-87
2023/09/01 00:23:38;;;;;;;7.38;5.85;;;;;;;-145.48;100.00;64539.38;5962318;29;20051;-87
2023/09/01 00:26:39;;;;;;;7.43;6.13;;;;;;;-145.48;100.00;64539.38;5987999;29;20631;-87
2023/09/01 00:29:41;;;;;;;8.48;5.82;;;;;;;-145.48;100.00;64539.38;5980210;29;20051;-86
2023/09/01 00:32:43;;;;;;;7.78;5.90;;;;;;;-145.48;100.00;64539.38;5980642;29;20054;-87
2023/09/01 00:35:45;;;;;;;8.07;6.53;;;;;;;-145.48;100.00;64539.38;5982507;29;20050;-87
2023/09/01 00:38:46;;;;;;;8.95;6.18;;;;;;;-145.48;100.00;64539.38;5982162;29;20106;-86
2023/09/01 00:41:48;;;;;;;8.10;6.28;;;;;;;-145.48;100.00;64539.38;5980689;29;20073;-87
2023/09/01 00:44:50;;;;;;;10.52;6.78;;;;;;;-145.48;100.00;64539.38;5973129;29;20047;-86
2023/09/01 00:47:52;;;;;;;10.40;7.20;;;;;;;-145.48;100.00;64539.38;5968842;29;20471;-86
2023/09/01 00:50:53;;;;;;;8.48;6.72;;;;;;;-145.48;100.00;64539.38;5969931;29;20042;-86
2023/09/01 00:53:55;;;;;;;8.43;6.88;;;;;;;-145.48;100.00;64539.38;5980198;29;20262;-86
2023/09/01 00:56:57;;;;;;;9.27;7.10;;;;;;;-145.48;100.00;64539.38;5979042;29;20058;-86
2023/09/01 00:59:59;;;;;;;8.45;7.15;;;;;;;-145.48;100.00;64539.38;5977650;29;20043;-86
2023/09/01 01:03:04;;;;;;;10.93;8.02;;;;;;;-145.48;100.00;64539.38;5973194;29;20102;-86
2023/09/01 01:06:25;;;;;;;9.25;7.78;;;;;;;-145.48;100.00;64539.38;5958187;29;20055;-86
2023/09/01 01:09:48;;;;;;;8.82;7.80;;;;;;;-145.48;100.00;64539.38;5970953;29;20085;-86
2023/09/01 01:13:01;;;;;;;9.57;7.50;;;;;;;-145.48;100.00;64539.38;5979570;29;20058;-86
2023/09/01 01:16:03;;;;;;;8.82;7.45;;;;;;;-145.48;100.00;64539.38;5971077;29;20122;-86
2023/09/01 01:19:31;;;;;;;8.70;7.32;;;;;;;-145.48;100.00;64539.38;5975814;29;20050;-86
2023/09/01 01:23:11;;;;;;;8.95;8.05;;;;;;;-145.48;100.00;64539.38;5979691;29;20222;-86
2023/09/01 01:26:15;;;;;;;10.05;7.78;;;;;;;-145.48;100.00;64539.38;5966268;29;20054;-86
2023/09/01 01:29:16;;;;;;;9.30;7.78;;;;;;;-145.48;100.00;64539.38;5970529;29;20082;-86
2023/09/01 01:32:18;;;;;;;10.98;7.80;;;;;;;-145.48;100.00;64539.38;5981051;29;20179;-86
2023/09/01 01:35:29;;;;;;;8.80;7.50;;;;;;;-145.48;100.00;64539.38;5972744;29;20043;-86
2023/09/01 01:38:34;;;;;;;8.82;7.90;;;;;;;-145.48;100.00;64539.38;5976943;29;20050;-86
2023/09/01 01:41:41;;;;;;;9.27;7.35;;;;;;;-145.48;100.00;64539.38;5965686;29;20047;-86
2023/09/01 01:44:47;;;;;;;8.95;8.02;;;;;;;-145.48;100.00;64539.38;5960462;29;20043;-86
2023/09/01 01:47:51;;;;;;;9.45;7.85;;;;;;;-145.48;100.00;64539.38;5969835;29;20168;-86
2023/09/01 01:50:55;;;;;;;10.85;7.78;;;;;;;-145.48;100.00;64539.38;5971910;29;20054;-86
2023/09/01 01:53:58;;;;;;;9.15;7.15;;;;;;;-145.48;100.00;64539.38;5983440;29;20573;-86
2023/09/01 01:57:00;;;;;;;11.00;8.35;;;;;;;-145.48;100.00;64539.38;5978741;29;20050;-86
2023/09/01 02:00:04;;;;;;;9.48;7.50;;;;;;;-145.48;100.00;64539.38;5978199;29;20151;-87
2023/09/01 02:03:13;;;;;;;10.40;7.65;;;;;;;-145.48;100.00;64539.38;5981175;29;20131;-87
2023/09/01 02:06:15;;;;;;;7.93;7.13;;;;;;;-145.48;100.00;64539.38;5997281;29;20064;-86
2023/09/01 02:09:17;;;;;;;9.88;7.75;;;;;;;-145.48;100.00;64539.38;5971078;29;20054;-86
2023/09/01 02:12:18;;;;;;;10.25;7.97;;;;;;;-145.48;100.00;64539.38;5977063;29;20070;-87
2023/09/01 02:15:20;;;;;;;9.48;8.27;;;;;;;-145.48;100.00;64539.38;5968525;29;20042;-86
2023/09/01 02:18:22;;;;;;;10.60;7.88;;;;;;;-145.48;100.00;64539.38;5964499;29;20055;-86
2023/09/01 02:21:25;;;;;;;10.63;8.23;;;;;;;-145.48;100.00;64539.38;5964810;29;20154;-86
2023/09/01 02:24:27;;;;;;;11.75;8.60;;;;;;;-145.48;100.00;64539.38;5970602;29;20418;-87
2023/09/01 02:27:29;;;;;;;9.32;7.78;;;;;;;-145.48;100.00;64539.38;5980528;29;20055;-86
2023/09/01 02:30:30;;;;;;;12.43;8.75;;;;;;;-145.48;100.00;64539.38;5967003;29;20047;-86
2023/09/01 02:33:32;;;;;;;11.55;8.98;;;;;;;-145.48;100.00;64539.38;5973338;29;20480;-86
2023/09/01 02:36:35;;;;;;;10.93;8.52;;;;;;;-145.48;100.00;64539.38;5971864;29;20121;-86
2023/09/01 02:39:37;;;;;;;11.57;8.88;;;;;;;-145.48;100.00;64539.38;5967196;29;20054;-86
2023/09/01 02:42:39;;;;;;;10.60;8.00;;;;;;;-145.48;100.00;64539.38;5974513;29;20502;-86
2023/09/01 02:45:41;;;;;;;9.80;7.47;;;;;;;-145.48;100.00;64539.38;5963113;29;20113;-86
2023/09/01 02:48:43;;;;;;;11.70;8.73;;;;;;;-145.48;100.00;64539.38;5960127;29;20074;-86
2023/09/01 02:51:45;;;;;;;9.60;7.80;;;;;;;-145.48;100.00;64539.38;5972012;29;20098;-86
2023/09/01 02:54:47;;;;;;;10.32;8.80;;;;;;;-145.48;100.00;64539.38;5968431;29;20546;-86
2023/09/01 02:57:49;;;;;;;12.05;8.98;;;;;;;-145.48;100.00;64539.38;5969803;29;20043;-86
2023/09/01 03:00:51;;;;;;;9.88;8.57;;;;;;;-145.48;100.00;64539.38;5986427;29;20220;-87
2023/09/01 03:03:53;;;;;;;12.15;8.50;;;;;;;-145.48;100.00;64539.38;5965758;29;20665;-86
2023/09/01 03:06:55;;;;;;;11.63;9.18;;;;;;;-145.48;100.00;64539.38;5961401;29;20082;-87
2023/09/01 03:09:57;;;;;;;11.30;9.63;;;;;;;-145.48;100.00;64539.38;5981345;29;20125;-86
2023/09/01 03:12:59;;;;;;;12.45;9.25;;;;;;;-145.48;100.00;64539.38;5973394;29;20054;-86
2023/09/01 03:16:03;;;;;;;12.88;9.35;;;;;;;-145.48;100.00;64539.38;5959235;29;20159;-87
2023/09/01 03:19:07;;;;;;;10.50;8.45;;;;;;;-145.48;100.00;64539.38;5977328;29;20528;-86
2023/09/01 03:22:08;;;;;;;11.57;9.32;;;;;;;-145.48;100.00;64539.38;5969993;29;20053;-87
2023/09/01 03:25:10;;;;;;;12.00;9.13;;;;;;;-145.48;100.00;64539.38;5982968;29;20126;-86
2023/09/01 03:28:13;;;;;;;13.55;9.23;;;;;;;-145.48;100.00;64539.38;5979762;29;20042;-86
2023/09/01 03:31:15;;;;;;;12.20;9.32;;;;;;;-145.48;100.00;64539.38;5980968;29;20088;-86
2023/09/01 03:34:17;;;;;;;11.70;8.45;;;;;;;-145.48;100.00;64539.38;5967592;29;20102;-86
2023/09/01 03:37:20;;;;;;;12.30;9.45;;;;;;;-145.48;100.00;64539.38;5978321;29;20054;-86
2023/09/01 03:40:22;;;;;;;15.48;9.57;;;;;;;-145.48;100.00;64539.38;5979377;29;20046;-87
2023/09/01 03:43:24;;;;;;;13.02;9.57;;;;;;;-145.48;100.00;64539.38;5980154;29;20315;-86
2023/09/01 03:46:27;;;;;;;15.00;9.50;;;;;;;-145.48;100.00;64539.38;5980416;29;20050;-86
2023/09/01 03:49:29;;;;;;;12.23;9.05;;;;;;;-145.48;100.00;64539.38;5970097;29;20200;-86
2023/09/01 03:52:30;;;;;;;12.90;9.50;;;;;;;-145.48;100.00;64539.38;5982547;29;20060;-86
2023/09/01 03:55:32;;;;;;;15.50;9.05;;;;;;;-145.48;100.00;64539.38;5982761;29;20052;-86
2023/09/01 03:58:36;;;;;;;12.38;8.77;;;;;;;-145.48;100.00;64539.38;5984832;29;20047;-86
2023/09/01 04:01:48;;;;;;;12.05;8.93;;;;;;;-145.48;100.00;64539.38;5966600;29;20046;-86
2023/09/01 04:04:50;;;;;;;11.30;8.40;;;;;;;-145.48;100.00;64539.38;5981455;29;20050;-86
2023/09/01 04:07:51;;;;;;;12.93;8.15;;;;;;;-145.48;100.00;64539.38;5979981;29;20088;-86
2023/09/01 04:10:53;;;;;;;10.27;8.15;;;;;;;-145.48;100.00;64539.38;5976574;29;20145;-86
2023/09/01 04:13:55;;;;;;;12.13;7.90;;;;;;;-145.48;100.00;64539.38;5966899;29;20111;-86
2023/09/01 04:16:57;;;;;;;13.38;7.95;;;;;;;-145.48;100.00;64539.38;5968686;29;20045;-86
2023/09/01 04:19:59;;;;;;;12.45;8.60;;;;;;;-145.48;100.00;64539.38;5966935;29;21416;-86
2023/09/01 04:23:01;;;;;;;12.60;8.05;;;;;;;-145.48;100.00;64539.38;5984235;29;20517;-86
2023/09/01 04:26:04;;;;;;;12.20;8.45;;;;;;;-145.48;100.00;64539.38;5972924;29;20056;-86
2023/09/01 04:29:06;;;;;;;10.85;7.82;;;;;;;-145.48;100.00;64539.38;5984221;29;20124;-86
2023/09/01 04:32:09;;;;;;;11.43;8.35;;;;;;;-145.48;100.00;64539.38;5975821;29;20577;-86
2023/09/01 04:35:11;;;;;;;11.23;7.45;;;;;;;-145.48;100.00;64539.38;5965993;29;20144;-86
2023/09/01 04:38:12;;;;;;;9.93;7.32;;;;;;;-145.48;100.00;64539.38;5977253;29;20463;-86
2023/09/01 04:41:15;;;;;;;12.18;7.97;;;;;;;-145.48;100.00;64539.38;5978977;29;20050;-86
2023/09/01 04:44:17;;;;;;;11.23;8.15;;;;;;;-145.48;100.00;64539.38;5963472;29;20066;-87
2023/09/01 04:47:20;;;;;;;12.25;8.32;;;;;;;-145.48;100.00;64539.38;5961405;29;20773;-86
2023/09/01 04:50:22;;;;;;;12.40;8.18;;;;;;;-145.48;100.00;64539.38;5975362;29;20055;-86
2023/09/01 04:53:24;;;;;;;12.77;7.80;;;;;;;-145.48;100.00;64539.38;5979026;29;20058;-86
2023/09/01 04:56:26;;;;;;;16.60;10.15;;;;;;;-145.48;100.00;64539.38;5972328;29;20145;-86
2023/09/01 04:59:28;;;;;;;11.70;8.10;;;;;;;-145.48;100.00;64539.38;5971629;29;20051;-86
2023/09/01 05:02:30;;;;;;;10.63;7.80;;;;;;;-145.48;100.00;64539.38;5980280;29;20082;-86
2023/09/01 05:05:32;;;;;;;11.20;8.57;;;;;;;-145.48;100.00;64539.38;5965795;29;20524;-86
2023/09/01 05:08:35;;;;;;;10.15;7.90;;;;;;;-145.48;100.00;64539.38;5981414;29;20131;-86
2023/09/01 05:11:37;;;;;;;11.57;7.88;;;;;;;-145.48;100.00;64539.38;5980754;29;20134;-86
2023/09/01 05:14:41;;;;;;;12.60;8.07;;;;;;;-145.48;100.00;64539.38;5971981;29;20062;-86
2023/09/01 05:17:43;;;;;;;11.32;7.75;;;;;;;-145.48;100.00;64539.38;5961621;29;20088;-86
2023/09/01 05:20:51;;;;;;;11.82;7.78;;;;;;;-145.48;100.00;64539.38;5975304;29;20078;-86
2023/09/01 05:23:53;;;;;;;12.07;7.78;;;;;;;-145.48;100.00;64539.38;5974171;29;20585;-86
2023/09/01 05:26:55;;;;;;;10.20;7.68;;;;;;;-145.48;100.00;64539.38;5968916;29;20523;-86
2023/09/01 05:29:57;;;;;;;11.80;7.63;;;;;;;-145.48;100.00;64539.38;5970511;29;20050;-86
2023/09/01 05:32:59;;;;;;;12.43;7.88;;;;;;;-145.48;100.00;64539.38;5981734;29;20607;-86
2023/09/01 05:36:01;;;;;;;12.68;7.55;;;;;;;-145.48;100.00;64539.38;5980926;29;20054;-86
2023/09/01 05:39:03;;;;;;;10.52;8.07;;;;;;;-145.48;100.00;64539.38;5972124;29;20041;-86
2023/09/01 05:42:07;;;;;;;12.05;7.68;;;;;;;-145.48;100.00;64539.38;5964942;29;20146;-86
2023/09/01 05:45:09;;;;;;;9.40;7.03;;;;;;;-145.48;100.00;64539.38;5984554;29;20913;-86
2023/09/01 05:48:11;;;;;;;12.02;7.38;;;;;;;-145.48;100.00;64539.38;5979576;29;20039;-86
2023/09/01 05:51:13;;;;;;;9.15;7.10;;;;;;;-145.48;100.00;64539.38;5972417;29;20532;-87
2023/09/01 05:54:16;;;;;;;9.52;7.32;;;;;;;-145.48;100.00;64539.38;5961774;29;20259;-86
2023/09/01 05:57:18;;;;;;;8.90;6.70;;;;;;;-145.48;100.00;64539.38;5969383;29;20473;-86
2023/09/01 06:00:20;;;;;;;9.80;7.35;;;;;;;-145.48;100.00;64539.38;5981861;29;20503;-87
2023/09/01 06:03:22;;;;;;;9.38;7.18;;;;;;;-145.48;100.00;64539.38;5976832;29;20047;-87
2023/09/01 06:06:24;;;;;;;9.73;7.63;;;;;;;-145.48;100.00;64539.38;5961987;29;20043;-87
2023/09/01 06:09:26;;;;;;;11.43;8.00;;;;;;;-145.48;100.00;64539.38;5974640;29;20667;-87
2023/09/01 06:12:28;;;;;;;10.35;7.93;;;;;;;-145.48;100.00;64539.38;5975659;29;20108;-87
2023/09/01 06:15:30;;;;;;;10.25;7.28;;;;;;;-145.48;100.00;64539.38;5975430;29;20061;-87
2023/09/01 06:18:32;;;;;;;10.10;7.50;;;;;;;-145.48;100.00;64539.38;5973370;29;20054;-87
2023/09/01 06:21:34;;;;;;;10.48;6.95;;;;;;;-145.48;100.00;64539.38;5972461;29;20436;-87
2023/09/01 06:24:36;;;;;;;9.20;7.28;;;;;;;-145.48;100.00;64539.38;5976738;29;20058;-87
2023/09/01 06:27:38;;;;;;;9.68;7.05;;;;;;;-145.48;100.00;64539.38;5976227;29;20047;-87
2023/09/01 06:30:41;;;;;;;8.60;7.15;;;;;;;-145.48;100.00;64539.38;5975558;29;20150;-87
2023/09/01 06:33:44;;;;;;;11.02;6.80;;;;;;;-145.48;100.00;64539.38;5965410;29;20486;-88
2023/09/01 06:36:46;;;;;;;8.07;6.90;;;;;;;-145.48;100.00;64539.38;5973545;29;20487;-88
2023/09/01 06:39:48;;;;;;;9.52;7.22;;;;;;;-145.48;100.00;64539.38;5980286;29;20053;-87
2023/09/01 06:42:50;;;;;;;11.30;6.60;;;;;;;-145.48;100.00;64539.38;5974509;29;20519;-87
2023/09/01 06:45:54;;;;;;;11.15;7.28;;;;;;;-145.48;100.00;64539.38;5978092;29;20069;-88
2023/09/01 06:48:56;;;;;;;9.63;6.53;;;;;;;-145.48;100.00;64539.38;5975825;29;20050;-88
2023/09/01 06:51:58;;;;;;;7.88;6.35;;;;;;;-145.48;100.00;64539.38;5969902;29;20084;-88
2023/09/01 06:55:00;;;;;;;8.52;6.75;;;;;;;-145.48;100.00;64539.38;5973451;29;20514;-88
2023/09/01 06:58:03;;;;;;;9.95;6.25;;;;;;;-145.48;100.00;64539.38;5975773;29;20058;-88
2023/09/01 07:01:08;;;;;;;9.27;6.35;;;;;;;-145.48;100.00;64539.38;5959908;29;20181;-88
2023/09/01 07:04:10;;;;;;;11.48;6.90;;;;;;;-145.48;100.00;64539.38;5973508;29;20039;-88
2023/09/01 07:07:12;;;;;;;10.55;6.65;;;;;;;-145.48;100.00;64539.38;5976976;29;20058;-87
2023/09/01 07:10:15;;;;;;;8.35;6.07;;;;;;;-145.48;100.00;64539.38;5976422;29;20395;-87
2023/09/01 07:13:17;;;;;;;8.32;6.55;;;;;;;-145.48;100.00;64539.38;5981345;29;20046;-87
2023/09/01 07:16:19;;;;;;;8.65;6.50;;;;;;;-145.48;100.00;64539.38;5978051;29;20046;-87
2023/09/01 07:19:20;;;;;;;7.78;5.55;;;;;;;-145.48;100.00;64539.38;5977447;29;20049;-87
2023/09/01 07:22:22;;;;;;;10.95;5.82;;;;;;;-145.48;100.00;64539.38;5976511;29;20112;-87
2023/09/01 07:25:24;;;;;;;9.50;5.57;;;;;;;-145.48;100.00;64539.38;5978078;29;20525;-87
2023/09/01 07:28:26;;;;;;;9.50;6.25;;;;;;;-145.48;100.00;64539.38;5978091;29;20054;-88
2023/09/01 07:31:28;;;;;;;9.35;5.80;;;;;;;-145.48;100.00;64539.38;5975330;29;20046;-87
2023/09/01 07:34:30;;;;;;;8.07;5.32;;;;;;;-145.48;100.00;64539.38;5973738;29;20045;-87
2023/09/01 07:37:31;;;;;;;7.05;5.07;;;;;;;-145.48;100.00;64539.38;5979445;29;20066;-87
2023/09/01 07:40:33;;;;;;;8.93;5.78;;;;;;;-145.48;100.00;64539.38;5981083;29;20050;-87
2023/09/01 07:43:35;;;;;;;10.63;5.50;;;;;;;-145.48;100.00;64539.38;5981063;29;20055;-87
2023/09/01 07:46:37;;;;;;;7.68;4.90;;;;;;;-145.48;100.00;64539.38;5980126;29;20054;-87
2023/09/01 07:49:39;;;;;;;8.25;5.00;;;;;;;-145.48;100.00;64539.38;5978999;29;20057;-87
2023/09/01 07:52:41;;;;;;;10.02;4.97;;;;;;;-145.48;100.00;64539.38;5977960;29;20291;-87
2023/09/01 07:55:42;;;;;;;6.07;4.60;;;;;;;-145.48;100.00;64539.38;5971574;29;20603;-87
2023/09/01 07:58:44;;;;;;;9.05;4.35;;;;;;;-145.48;100.00;64539.38;5965804;29;20043;-87
2023/09/01 08:01:46;;;;;;;8.85;5.30;;;;;;;-145.48;100.00;64539.38;5981272;29;20313;-87
2023/09/01 08:04:48;;;;;;;9.27;4.63;;;;;;;-145.48;100.00;64539.38;5967254;29;20054;-88
2023/09/01 08:07:51;;;;;;;10.20;5.20;;;;;;;-145.48;100.00;64539.38;5973989;29;20055;-88
2023/09/01 08:10:54;;;;;;;9.50;5.25;;;;;;;-145.48;100.00;64539.38;5978825;29;20053;-87
2023/09/01 08:13:56;;;;;;;7.32;4.93;;;;;;;-145.48;100.00;64539.38;5972009;29;20460;-87
2023/09/01 08:16:58;;;;;;;8.38;5.05;;;;;;;-145.48;100.00;64539.38;5972826;29;20042;-87
2023/09/01 08:20:00;;;;;;;8.52;4.50;;;;;;;-145.48;100.00;64539.38;5975884;29;20054;-87
2023/09/01 08:23:02;;;;;;;8.88;5.18;;;;;;;-145.48;100.00;64539.38;5980131;29;20047;-87
2023/09/01 08:26:04;;;;;;;8.68;4.57;;;;;;;-145.48;100.00;64539.38;5974862;29;20117;-87
2023/09/01 08:29:06;;;;;;;9.23;5.03;;;;;;;-145.48;100.00;64539.38;5968469;29;20501;-87
2023/09/01 08:32:09;;;;;;;8.85;4.68;;;;;;;-145.48;100.00;64539.38;5973678;29;20141;-87
2023/09/01 08:35:11;;;;;;;9.85;4.90;;;;;;;-145.48;100.00;64539.38;5964547;29;20073;-87
2023/09/01 08:38:13;;;;;;;9.50;4.40;;;;;;;-145.48;100.00;64539.38;5983197;29;20101;-88
2023/09/01 08:41:15;;;;;;;7.85;4.18;;;;;;;-145.48;100.00;64539.38;5973429;29;20125;-87
2023/09/01 08:44:22;;;;;;;10.02;4.30;;;;;;;-145.48;100.00;64539.38;5976997;29;20074;-87
2023/09/01 08:47:25;;;;;;;7.85;4.50;;;;;;;-145.48;100.00;64539.38;5969739;29;20411;-88
2023/09/01 08:50:27;;;;;;;7.85;4.65;;;;;;;-145.48;100.00;64539.38;5977322;29;20054;-88
2023/09/01 08:53:29;;;;;;;6.60;4.40;;;;;;;-145.48;100.00;64539.38;5975552;29;20466;-88
2023/09/01 08:56:32;;;;;;;9.73;5.00;;;;;;;-145.48;100.00;64539.38;5975824;29;20046;-88
2023/09/01 08:59:35;;;;;;;8.13;4.75;;;;;;;-145.48;100.00;64539.38;5974959;29;20050;-88
2023/09/01 09:02:45;;;;;;;9.32;4.18;;;;;;;-145.48;100.00;64539.38;5955787;29;20046;-88
2023/09/01 09:06:07;;;;;;;9.15;4.43;;;;;;;-145.48;100.00;64539.38;5964665;29;20058;-88
2023/09/01 09:09:11;;;;;;;6.10;4.03;;;;;;;-145.48;100.00;64539.38;5973950;29;20517;-88
2023/09/01 09:12:13;;;;;;;8.52;3.90;;;;;;;-145.48;100.00;64539.38;5977777;29;20062;-88
2023/09/01 09:15:17;;;;;;;9.10;4.63;;;;;;;-145.48;100.00;64539.38;5974352;29;20049;-88
2023/09/01 09:18:31;;;;;;;8.68;4.60;;;;;;;-145.48;100.00;64539.38;5963223;29;20049;-88
2023/09/01 09:21:33;;;;;;;9.13;4.00;;;;;;;-145.48;100.00;64539.38;5974489;29;20035;-88
2023/09/01 09:24:37;;;;;;;10.57;4.40;;;;;;;-145.48;100.00;64539.38;5972022;29;20039;-88
2023/09/01 09:27:39;;;;;;;12.48;4.80;;;;;;;-145.48;100.00;64539.38;5971014;29;20038;-89
2023/09/01 09:30:51;;;;;;;7.30;4.07;;;;;;;-145.48;100.00;64539.38;5976096;29;20050;-88
2023/09/01 09:33:53;;;;;;;5.38;3.95;;;;;;;-145.48;100.00;64539.38;5977372;29;20046;-88
2023/09/01 09:36:55;;;;;;;7.93;3.75;;;;;;;-145.48;100.00;64539.38;5973945;29;20057;-88
2023/09/01 09:40:17;;;;;;;6.07;4.30;;;;;;;-145.48;100.00;64539.38;5976985;29;20050;-88
2023/09/01 09:43:19;;;;;;;6.72;4.10;;;;;;;-145.48;100.00;64539.38;5967106;29;20042;-93
2023/09/01 09:46:21;;;;;;;5.22;3.40;;;;;;;-145.48;100.00;64539.38;5972870;29;20188;-93
2023/09/01 09:49:24;;;;;;;6.57;3.38;;;;;;;-145.48;100.00;64539.38;5976752;29;20043;-93
2023/09/01 09:52:31;;;;;;;7.97;3.75;;;;;;;-145.48;100.00;64539.38;5970788;29;20043;-92
2023/09/01 09:55:49;;;;;;;7.97;4.30;;;;;;;-145.48;100.00;64539.38;5961246;29;20137;-94
2023/09/01 09:58:53;;;;;;;5.20;3.58;;;;;;;-145.48;100.00;64539.38;5973152;29;20051;-94
2023/09/01 10:02:04;;;;;;;11.13;3.60;;;;;;;-145.48;100.00;64539.38;5978972;29;20042;-94
2023/09/01 10:05:08;;;;;;;8.63;3.67;;;;;;;-145.48;100.00;64539.38;5975208;29;20051;-94
2023/09/01 10:08:11;;;;;;;8.18;3.30;;;;;;;-145.48;100.00;64539.38;5972520;29;20323;-94
2023/09/01 10:11:14;;;;;;;6.35;2.75;;;;;;;-145.48;100.00;64539.38;5976172;29;20081;-94
2023/09/01 10:14:17;;;;;;;6.25;3.35;;;;;;;-145.48;100.00;64539.38;5977747;29;20038;-94
2023/09/01 10:17:21;;;;;;;4.97;2.63;;;;;;;-145.48;100.00;64539.38;5976105;29;20039;-94
2023/09/01 10:20:24;;;;;;;6.47;3.13;;;;;;;-145.48;100.00;64539.38;5976505;29;20058;-93
2023/09/01 10:23:27;;;;;;;4.72;3.17;;;;;;;-145.48;100.00;64539.38;5979877;29;20046;-91
2023/09/01 10:26:29;;;;;;;7.50;3.30;;;;;;;-145.48;100.00;64539.38;5981744;29;20065;-93
2023/09/01 10:29:33;;;;;;;9.73;3.72;;;;;;;-145.48;100.00;64539.38;5962160;29;21005;-89
2023/09/01 10:32:35;;;;;;;7.07;2.75;;;;;;;-145.48;100.00;64539.38;5981004;29;20185;-88
2023/09/01 10:35:47;;;;;;;5.65;2.47;;;;;;;-145.48;100.00;64539.38;5976566;29;20042;-94
2023/09/01 10:38:49;;;;;;;2.90;2.33;;;;;;;-145.48;100.00;64539.38;5980557;29;20058;-96
2023/09/01 10:41:57;;;;;;;4.22;2.30;;;;;;;-145.48;100.00;64539.38;5984456;29;20445;-95
2023/09/01 10:45:06;;;;;;;4.25;2.10;;;;;;;-145.48;100.00;64539.38;5981587;29;20169;-95
2023/09/01 10:48:11;;;;;;;4.90;2.25;;;;;;;-145.48;100.00;64539.38;5956481;29;20073;-96
2023/09/01 10:51:40;;;;;;;3.67;2.40;;;;;;;-145.48;100.00;64539.38;5978889;29;20471;-96
2023/09/01 10:54:42;;;;;;;6.72;2.40;;;;;;;-145.48;100.00;64539.38;5967060;29;20041;-93
2023/09/01 10:57:52;;;;;;;5.20;2.03;;;;;;;-145.48;100.00;64539.38;5979959;29;20049;-94
2023/09/01 11:00:57;;;;;;;2.97;1.80;;;;;;;-145.48;100.00;64539.38;5976896;29;20049;-94
2023/09/01 11:04:21;;;;;;;3.80;1.83;;;;;;;-145.48;100.00;64539.38;5974403;29;20161;-95
2023/09/01 11:07:23;;;;;;;4.70;1.65;;;;;;;-145.48;100.00;64539.38;5978278;29;20417;-94
2023/09/01 11:10:27;;;;;;;2.78;2.00;;;;;;;-145.48;100.00;64539.38;5970412;29;20081;-94
2023/09/01 11:13:28;;;;;;;4.07;1.90;;;;;;;-145.48;100.00;64539.38;5975647;29;20045;-94
2023/09/01 11:16:30;;;;;;;3.10;1.60;;;;;;;-145.48;100.00;64539.38;5962318;29;20051;-94
2023/09/01 11:19:53;;;;;;;6.00;1.40;;;;;;;-145.48;100.00;64539.38;5977614;29;20046;-93
2023/09/01 11:22:59;;;;;;;1.98;1.30;;;;;;;-145.48;100.00;64539.38;5978382;29;20054;-94
2023/09/01 11:26:03;;;;;;;2.42;1.50;;;;;;;-145.48;100.00;64539.38;5980523;29;20051;-93
2023/09/01 11:29:14;;;;;;;2.63;1.13;;;;;;;-145.48;100.00;64539.38;5961750;29;20046;-94
2023/09/01 11:32:26;;;;;;;2.38;1.45;;;;;;;-145.48;100.00;64539.38;5979999;29;20658;-94
2023/09/01 11:35:29;;;;;;;3.25;1.38;;;;;;;-145.48;100.00;64539.38;5969789;29;20500;-95
2023/09/01 11:38:31;;;;;;;3.72;1.20;;;;;;;-145.48;100.00;64539.38;5970343;29;20042;-94
2023/09/01 11:41:34;;;;;;;2.15;1.40;;;;;;;-145.48;100.00;64539.38;5966063;29;20073;-93
2023/09/01 11:44:36;;;;;;;1.45;1.10;;;;;;;-145.48;100.00;64539.38;5969557;29;20047;-92
2023/09/01 11:47:38;;;;;;;2.80;1.42;;;;;;;-145.48;100.00;64539.38;5979995;29;20057;-96
2023/09/01 11:50:47;;;;;;;2.28;1.40;;;;;;;-145.48;100.00;64539.38;5960991;29;20147;-95
2023/09/01 11:53:51;;;;;;;3.00;1.30;;;;;;;-145.48;100.00;64539.38;5978811;29;20049;-96
2023/09/01 11:56:53;;;;;;;2.75;1.63;;;;;;;-145.48;100.00;64539.38;5979143;29;20085;-93
2023/09/01 11:59:55;;;;;;;2.97;1.40;;;;;;;-145.48;100.00;64539.38;5963786;29;20058;-91
2023/09/01 12:02:58;;;;;;;2.05;1.40;;;;;;;-145.48;100.00;64539.38;5962871;29;20734;-93
2023/09/01 12:06:00;;;;;;;1.85;1.35;;;;;;;-145.48;100.00;64539.38;5970238;29;20054;-93
2023/09/01 12:09:18;;;;;;;1.95;1.50;;;;;;;-145.48;100.00;64539.38;5958644;29;20111;-92
2023/09/01 12:12:22;;;;;;;2.10;1.70;;;;;;;-145.48;100.00;64539.38;5979841;29;20790;-93
2023/09/01 12:15:24;;;;;;;3.88;1.60;;;;;;;-145.48;100.00;64539.38;5971505;29;20352;-91
2023/09/01 12:18:38;;;;;;;3.67;1.60;;;;;;;-145.48;100.00;64539.38;5976644;29;20082;-91
2023/09/01 12:21:40;;;;;;;2.50;1.55;;;;;;;-145.48;100.00;64539.38;5982086;29;20627;-90
2023/09/01 12:24:58;;;;;;;3.67;1.50;;;;;;;-145.48;100.00;64539.38;5975659;29;20046;-90
2023/09/01 12:28:00;;;;;;;3.58;1.80;;;;;;;-145.48;100.00;64539.38;5980602;29;20072;-90
2023/09/01 12:31:03;;;;;;;2.22;1.58;;;;;;;-145.48;100.00;64539.38;5974033;29;20074;-90
2023/09/01 12:34:05;;;;;;;5.22;1.65;;;;;;;-145.48;100.00;64539.38;5977711;29;20592;-90
2023/09/01 12:37:07;;;;;;;1.75;1.42;;;;;;;-145.48;100.00;64539.38;5965269;29;20159;-90
2023/09/01 12:40:10;;;;;;;2.30;1.60;;;;;;;-145.48;100.00;64539.38;5967483;29;20046;-89
2023/09/01 12:43:11;;;;;;;1.60;1.48;;;;;;;-145.48;100.00;64539.38;5970650;29;20058;-90
2023/09/01 12:46:14;;;;;;;5.10;1.75;;;;;;;-145.48;100.00;64539.38;5966041;29;20054;-88
2023/09/01 12:49:16;;;;;;;3.53;1.73;;;;;;;-145.48;100.00;64539.38;5971202;29;20569;-90
2023/09/01 12:52:18;;;;;;;4.68;2.22;;;;;;;-145.48;100.00;64539.38;5976913;29;20039;-90
2023/09/01 12:55:20;;;;;;;3.30;1.90;;;;;;;-145.48;100.00;64539.38;5971918;29;20141;-90
2023/09/01 12:58:22;;;;;;;4.25;1.88;;;;;;;-145.48;100.00;64539.38;5961232;29;20054;-89
2023/09/01 13:01:24;;;;;;;2.60;1.92;;;;;;;-145.48;100.00;64539.38;5978416;29;20046;-89
2023/09/01 13:04:29;;;;;;;3.38;1.80;;;;;;;-145.48;100.00;64539.38;5980466;29;20046;-90
2023/09/01 13:07:31;;;;;;;4.50;2.05;;;;;;;-145.48;100.00;64539.38;5974114;29;20050;-90
2023/09/01 13:10:32;;;;;;;3.72;1.80;;;;;;;-145.48;100.00;64539.38;5973628;29;20481;-88
2023/09/01 13:13:36;;;;;;;4.95;1.92;;;;;;;-145.48;100.00;64539.38;5976179;29;20187;-88
2023/09/01 13:16:37;;;;;;;3.78;2.10;;;;;;;-145.48;100.00;64539.38;5970552;29;20511;-88
2023/09/01 13:19:40;;;;;;;3.63;2.17;;;;;;;-145.48;100.00;64539.38;5962992;29;20497;-88
2023/09/01 13:22:42;;;;;;;4.18;2.17;;;;;;;-145.48;100.00;64539.38;5984241;29;20341;-88
2023/09/01 13:25:44;;;;;;;2.92;2.08;;;;;;;-145.48;100.00;64539.38;5977526;29;20180;-88
2023/09/01 13:28:46;;;;;;;3.25;2.15;;;;;;;-145.48;100.00;64539.38;5984395;29;20301;-88
2023/09/01 13:31:48;;;;;;;4.25;2.58;;;;;;;-145.48;100.00;64539.38;5970312;29;20055;-88
2023/09/01 13:34:50;;;;;;;4.03;2.38;;;;;;;-145.48;100.00;64539.38;5976908;29;20042;-88
2023/09/01 13:37:52;;;;;;;4.15;2.40;;;;;;;-145.48;100.00;64539.38;5960235;29;20057;-88
2023/09/01 13:40:55;;;;;;;4.50;2.45;;;;;;;-145.48;100.00;64539.38;5963072;29;20127;-88
2023/09/01 13:43:57;;;;;;;4.25;2.00;;;;;;;-145.48;100.00;64539.38;5970570;29;20084;-88
2023/09/01 13:46:59;;;;;;;1.90;1.70;;;;;;;-145.48;100.00;64539.38;5975137;29;20095;-88
2023/09/01 13:50:02;;;;;;;4.15;2.20;;;;;;;-145.48;100.00;64539.38;5988173;29;20046;-88
2023/09/01 13:53:04;;;;;;;3.50;2.60;;;;;;;-145.48;100.00;64539.38;5977848;29;20668;-88